Latest Weather Observations for Palmerville

IDQ60801

Issued at 8:02 pm EST Saturday 5 September 2015 (issued every 30 minutes, with the page automatically refreshed every 10 minutes)

About weather observations | Map of weather stations | Latest weather observations for QLD | Other Formats
Station Details ID: 028004 Name: PALMERVILLE Lat: -16.00 Lon: 144.08 Height: 203.8 m
Data from the previous 72 hours. | See also: Recent months at Palmerville
Date/Time
EST
Temp
°C
App
Temp
°C
Dew
Point
Rel
Hum
%
Delta-T
°C
Wind Press
QNH
hPa
Press
MSL
hPa
Rain
since 9 am
mm
Dir
 
Spd
km/h
Gust
km/h
Spd
kts
Gust
kts
05/08:00pm 26.8 25.3 15.2 49 7.1 NNE 17 24 9 13 1015.3 1014.2 0.0
05/07:30pm 27.8 27.1 13.3 40 8.6 N 9 24 5 13 1014.6 1013.5 0.0
05/07:00pm 27.4 25.4 6.2 26 11.2 NE 6 7 3 4 1014.0 1012.9 0.0
05/06:30pm 29.1 27.9 4.6 21 12.7 CALM 0 0 0 0 1013.6 1012.5 0.0
05/06:00pm 31.8 29.6 5.3 19 14.1 WSW 6 7 3 4 1013.4 1012.3 0.0
05/05:30pm 32.5 29.5 4.3 17 14.8 SW 9 15 5 8 1013.2 1012.1 0.0
05/05:00pm 33.1 30.6 4.8 17 15.1 SSW 7 11 4 6 1013.2 1012.1 0.0
05/04:30pm 32.6 29.7 4.4 17 14.9 NW 9 20 5 11 1012.9 1011.8 0.0
05/04:00pm 33.4 31.0 4.2 16 15.4 ESE 6 13 3 7 1012.7 1011.6 0.0
05/03:30pm 32.8 29.9 4.6 17 14.9 WNW 9 15 5 8 1012.9 1011.8 0.0
05/03:00pm 33.2 30.0 4.9 17 15.1 W 11 20 6 11 1013.4 1012.3 0.0
05/02:30pm 32.7 28.6 4.5 17 14.9 N 15 22 8 12 1013.7 1012.6 0.0
05/02:00pm 32.7 29.0 4.5 17 14.9 NNE 13 20 7 11 1014.2 1013.1 0.0
05/01:30pm 32.5 29.9 5.9 19 14.4 NE 9 20 5 11 1014.6 1013.5 0.0
05/01:00pm 32.3 30.0 5.0 18 14.5 SE 6 11 3 6 1015.3 1014.2 0.0
05/12:30pm 32.4 30.3 5.8 19 14.3 ESE 6 9 3 5 1015.8 1014.7 0.0
05/12:00pm 30.2 27.8 6.8 23 12.7 WNW 9 15 5 8 1016.4 1015.3 0.0
05/11:30am 30.3 27.6 5.6 21 13.1 N 9 15 5 8 1017.1 1016.0 0.0
05/11:00am 29.9 28.6 9.9 29 11.4 S 7 11 4 6 1017.7 1016.7 0.0
05/10:30am 27.8 27.5 11.4 36 9.5 NNW 4 9 2 5 1018.2 1017.1 0.0
05/10:00am 26.7 26.7 14.1 46 7.6 NW 7 13 4 7 1018.6 1017.5 0.0
05/09:30am 25.4 25.6 14.2 50 6.7 ENE 6 11 3 6 1018.7 1017.6 0.0
05/09:00am 24.6 24.6 14.1 52 6.2 E 7 11 4 6 1018.6 1017.5 0.0
05/08:30am 22.3 22.4 13.9 59 4.9 E 6 9 3 5 1018.6 1017.5 0.0
05/08:00am 20.5 20.7 14.6 69 3.5 E 7 13 4 7 1018.7 1017.6 0.0
05/07:30am 18.5 18.6 15.4 82 1.8 E 9 13 5 7 1018.4 1017.3 0.0
05/07:00am 15.9 16.7 14.9 94 0.6 E 4 11 2 6 1017.8 1016.8 0.0
05/06:30am 15.2 16.4 13.9 92 0.7 CALM 0 0 0 0 1017.6 1016.6 0.0
05/06:00am 15.5 16.8 14.0 91 0.9 CALM 0 0 0 0 1017.4 1016.4 0.0
05/05:30am 15.7 16.9 13.9 89 1.0 CALM 0 0 0 0 1017.1 1016.0 0.0
05/05:00am 16.5 18.0 14.7 89 1.0 CALM 0 6 0 3 1016.8 1015.7 0.0
05/04:30am 16.9 18.6 15.1 89 1.1 CALM 0 7 0 4 1016.8 1015.7 0.0
05/04:00am 17.0 18.7 15.2 89 1.1 CALM 0 0 0 0 1017.0 1015.9 0.0
05/03:30am 17.5 19.1 15.0 85 1.5 CALM 0 0 0 0 1017.0 1015.9 0.0
05/03:00am 18.1 19.9 15.4 84 1.6 CALM 0 0 0 0 1017.0 1015.9 0.0
05/02:30am 18.7 20.5 15.6 82 1.8 CALM 0 0 0 0 1017.1 1016.0 0.0
05/02:00am 19.2 21.0 15.5 79 2.2 CALM 0 0 0 0 1017.3 1016.3 0.0
05/01:30am 20.2 22.1 15.8 76 2.6 CALM 0 0 0 0 1017.5 1016.5 0.0
05/01:00am 21.4 23.2 16.4 73 3.0 NNE 2 7 1 4 1017.8 1016.8 0.0
05/12:30am 21.9 22.8 16.6 72 3.3 NNE 7 9 4 5 1018.0 1017.0 0.0
05/12:00am 22.3 22.9 16.8 71 3.4 NNE 9 11 5 6 1018.2 1017.1 0.0
 
Date/Time
EST
Temp
°C
App
Temp
°C
Dew
Point
Rel
Hum
%
Delta-T
°C
Wind Press
QNH
hPa
Press
MSL
hPa
Rain
since 9 am
mm
Dir
 
Spd
km/h
Gust
km/h
Spd
kts
Gust
kts
04/11:30pm 22.6 23.4 16.4 68 3.8 N 7 11 4 6 1018.2 1017.1 0.0
04/11:00pm 23.1 24.0 16.6 67 4.0 N 7 13 4 7 1018.2 1017.1 0.0
04/10:30pm 23.7 24.1 16.2 63 4.6 NNE 9 13 5 7 1018.2 1017.1 0.0
04/10:00pm 24.3 24.2 16.0 60 5.1 NNE 11 15 6 8 1017.9 1016.9 0.0
04/09:30pm 24.8 24.7 16.0 58 5.4 NNE 11 17 6 9 1017.6 1016.6 0.0
04/09:00pm 25.4 24.9 16.0 56 5.8 NNE 13 22 7 12 1017.3 1016.3 0.0
04/08:30pm 26.2 25.2 15.6 52 6.5 NNE 15 26 8 14 1016.7 1015.6 0.0
04/08:00pm 27.2 25.2 14.9 47 7.5 NNE 19 28 10 15 1016.2 1015.1 0.0
04/07:30pm 28.2 25.9 14.1 42 8.5 NNE 19 30 10 16 1015.4 1014.3 0.0
04/07:00pm 29.6 30.0 11.2 32 10.7 CALM 0 0 0 0 1014.6 1013.5 0.0
04/06:30pm 31.1 30.3 11.0 29 11.7 NNW 6 7 3 4 1014.3 1013.2 0.0
04/06:00pm 32.2 30.6 10.3 26 12.7 WNW 9 11 5 6 1014.0 1012.9 0.0
04/05:30pm 32.6 30.7 10.6 26 12.8 W 11 17 6 9 1013.8 1012.7 0.0
04/05:00pm 34.5 33.1 11.0 24 13.9 WSW 9 19 5 10 1013.6 1012.5 0.0
04/04:30pm 33.4 32.7 11.3 26 13.1 SE 6 13 3 7 1013.6 1012.5 0.0
04/04:00pm 34.0 32.7 9.9 23 14.0 SW 7 13 4 7 1013.5 1012.4 0.0
04/03:30pm 33.8 31.9 10.4 24 13.7 WNW 11 20 6 11 1013.6 1012.5 0.0
04/03:00pm 33.3 32.2 10.6 25 13.3 NE 7 9 4 5 1013.8 1012.7 0.0
04/02:30pm 32.7 31.1 10.1 25 13.1 NW 9 15 5 8 1014.2 1013.1 0.0
04/02:00pm 32.9 31.5 10.9 26 12.9 NW 9 15 5 8 1014.6 1013.5 0.0
04/01:30pm 32.6 31.1 10.6 26 12.8 NNE 9 19 5 10 1015.0 1013.9 0.0
04/01:00pm 33.2 32.2 11.1 26 13.0 NE 7 13 4 7 1015.5 1014.4 0.0
04/12:30pm 32.8 31.1 12.4 29 12.2 N 13 20 7 11 1016.2 1015.1 0.0
04/12:00pm 32.0 31.7 13.2 31 11.4 WSW 7 17 4 9 1016.8 1015.7 0.0
04/11:30am 31.4 30.5 12.7 32 11.2 SE 9 15 5 8 1017.4 1016.4 0.0
04/11:00am 30.6 30.2 13.0 34 10.5 NNE 7 13 4 7 1018.2 1017.1 0.0
04/10:30am 29.1 28.6 12.1 35 10.0 SSW 6 9 3 5 1018.5 1017.4 0.0
04/10:00am 28.5 28.4 13.2 39 9.1 ESE 6 11 3 6 1018.9 1017.8 0.0
04/09:30am 26.9 27.1 14.6 46 7.4 E 7 11 4 6 1019.1 1018.0 0.0
04/09:00am 25.6 26.3 16.2 56 5.8 E 7 11 4 6 1019.0 1017.9 0.0
04/08:30am 23.9 24.3 16.2 62 4.7 E 9 13 5 7 1019.0 1017.9 0.0
04/08:00am 22.1 22.8 16.1 69 3.6 E 7 13 4 7 1018.9 1017.8 0.0
04/07:30am 20.4 20.8 16.2 77 2.5 E 9 13 5 7 1018.6 1017.5 0.0
04/07:00am 18.7 19.8 16.5 87 1.3 ENE 6 7 3 4 1018.3 1017.2 0.0
04/06:30am 18.3 19.3 16.3 88 1.2 NNE 6 9 3 5 1017.8 1016.8 0.0
04/06:00am 18.2 19.2 16.4 89 1.1 E 6 9 3 5 1017.5 1016.5 0.0
04/05:30am 17.5 18.7 14.8 84 1.6 E 2 6 1 3 1017.1 1016.0 0.0
04/05:00am 18.5 19.1 15.2 81 1.9 E 6 7 3 4 1016.7 1015.6 0.0
04/04:30am 19.5 20.4 16.2 81 2.0 N 6 6 3 3 1016.5 1015.4 0.0
04/04:00am 20.5 21.3 17.3 82 2.0 N 9 13 5 7 1016.4 1015.3 0.0
04/03:30am 19.8 20.8 16.4 81 2.1 NNW 6 11 3 6 1016.4 1015.3 0.0
04/03:00am 20.5 21.3 16.3 77 2.5 N 7 11 4 6 1016.4 1015.3 0.0
04/02:30am 20.6 21.4 15.8 74 2.9 N 6 7 3 4 1016.7 1015.6 0.0
04/02:00am 20.9 22.4 15.7 72 3.1 N 2 9 1 5 1017.1 1016.0 0.0
04/01:30am 21.8 23.8 16.1 70 3.5 CALM 0 0 0 0 1017.3 1016.3 0.0
04/01:00am 22.9 23.8 16.2 66 4.1 ENE 6 9 3 5 1017.5 1016.5 0.0
04/12:30am 23.6 24.6 16.4 64 4.4 ENE 6 9 3 5 1017.6 1016.6 0.0
04/12:00am 24.3 24.5 16.8 63 4.6 NNE 11 19 6 10 1017.5 1016.5 0.0
 
Date/Time
EST
Temp
°C
App
Temp
°C
Dew
Point
Rel
Hum
%
Delta-T
°C
Wind Press
QNH
hPa
Press
MSL
hPa
Rain
since 9 am
mm
Dir
 
Spd
km/h
Gust
km/h
Spd
kts
Gust
kts
03/11:30pm 24.8 25.3 16.5 60 5.1 NNE 9 15 5 8 1017.3 1016.3 0.0
03/11:00pm 25.6 25.3 16.4 56 5.7 NNE 13 20 7 11 1017.3 1016.3 0.0
03/10:30pm 26.3 26.7 16.3 54 6.2 N 9 20 5 11 1017.3 1016.3 0.0
03/10:00pm 27.2 26.3 15.9 50 7.0 N 15 22 8 12 1017.2 1016.1 0.0
03/09:30pm 27.3 27.6 15.0 47 7.5 NNW 7 19 4 10 1016.9 1015.8 0.0
03/09:00pm 25.3 24.1 11.5 42 7.9 NE 9 13 5 7 1016.7 1015.6 0.0
03/08:30pm 25.7 25.7 9.9 37 8.8 CALM 0 2 0 1 1016.2 1015.1 0.0
03/08:00pm 26.9 25.9 10.2 35 9.4 SSE 6 7 3 4 1015.9 1014.8 0.0
03/07:30pm 28.4 27.3 10.1 32 10.4 SSE 6 7 3 4 1015.7 1014.6 0.0
03/07:00pm 29.8 28.6 10.4 30 11.1 SSW 7 9 4 5 1015.3 1014.2 0.0
03/06:30pm 31.2 30.1 10.5 28 12.0 SSW 7 13 4 7 1014.9 1013.8 0.0
03/06:00pm 32.4 30.9 10.4 26 12.8 SSW 9 15 5 8 1014.5 1013.4 0.0
03/05:30pm 33.4 31.2 10.7 25 13.3 S 13 17 7 9 1014.1 1013.0 0.0
03/05:00pm 33.8 31.9 10.4 24 13.7 SSW 11 22 6 12 1013.9 1012.8 0.0
03/04:30pm 33.8 32.3 10.4 24 13.7 SW 9 15 5 8 1013.9 1012.8 0.0
03/04:00pm 33.9 32.0 10.5 24 13.7 SSW 11 20 6 11 1014.0 1012.9 0.0
03/03:30pm 33.4 31.2 10.7 25 13.3 SW 13 19 7 10 1014.1 1013.0 0.0
03/03:00pm 33.4 31.3 11.3 26 13.0 S 13 28 7 15 1014.4 1013.3 0.0
03/02:30pm 33.6 32.5 12.0 27 12.9 W 9 20 5 11 1014.7 1013.6 0.0
03/02:00pm 32.7 31.2 11.8 28 12.4 W 11 24 6 13 1015.2 1014.1 0.0
03/01:30pm 32.4 30.3 11.0 27 12.5 W 13 20 7 11 1015.7 1014.6 0.0
03/01:00pm 32.4 30.3 11.0 27 12.5 SSE 13 20 7 11 1016.4 1015.3 0.0
03/12:30pm 31.8 30.4 11.0 28 12.1 SSW 9 20 5 11 1017.1 1016.0 0.0
03/12:00pm 31.1 30.0 12.0 31 11.3 N 9 15 5 8 1017.7 1016.7 0.0
03/11:30am 29.7 29.1 12.2 34 10.3 W 7 15 4 8 1018.5 1017.4 0.0
03/11:00am 29.3 29.1 13.1 37 9.7 NNW 6 11 3 6 1019.0 1017.9 0.0
03/10:30am 27.8 28.0 14.1 43 8.3 ESE 6 11 3 6 1019.5 1018.4 0.0
03/10:00am 27.6 27.8 14.6 45 7.9 ESE 7 13 4 7 1019.8 1018.7 0.0
03/09:30am 25.9 26.2 14.4 49 6.9 NNE 6 11 3 6 1019.9 1018.8 0.0
03/09:00am 25.5 26.3 15.8 55 5.9 ESE 6 11 3 6 1019.9 1018.8 0.0
03/08:30am 23.1 24.0 16.6 67 4.0 ESE 7 11 4 6 1019.8 1018.7 0.0
03/08:00am 21.5 22.3 17.3 77 2.6 ESE 9 13 5 7 1019.0 1017.9 0.0
03/07:30am 19.6 20.6 16.8 84 1.7 E 7 11 4 6 1018.5 1017.4 0.0
03/07:00am 18.2 18.8 16.7 91 0.9 ENE 9 13 5 7 1018.2 1017.1 0.0
03/06:30am 17.4 18.4 16.4 94 0.6 E 6 9 3 5 1018.0 1017.0 0.0
03/06:00am 17.3 18.5 15.8 91 0.9 E 4 7 2 4 1017.7 1016.7 0.0
03/05:30am 17.4 19.1 15.2 87 1.3 CALM 0 0 0 0 1017.5 1016.5 0.0
03/05:00am 18.0 19.8 15.4 85 1.5 CALM 0 0 0 0 1017.1 1016.0 0.0
03/04:30am 18.5 20.4 15.7 84 1.7 CALM 0 0 0 0 1016.8 1015.7 0.0
03/04:00am 19.0 21.0 15.9 82 1.9 CALM 0 0 0 0 1016.8 1015.7 0.0
03/03:30am 19.7 21.8 16.2 80 2.1 CALM 0 0 0 0 1016.8 1015.7 0.0
03/03:00am 20.5 22.4 16.7 79 2.3 N 2 6 1 3 1016.7 1015.6 0.0
03/02:30am 21.1 22.2 16.5 75 2.8 N 6 9 3 5 1016.7 1015.6 0.0
03/02:00am 21.6 22.7 17.0 75 2.8 NE 7 13 4 7 1016.7 1015.6 0.0
03/01:30am 21.8 22.7 16.7 73 3.1 NE 7 11 4 6 1016.8 1015.7 0.0
03/01:00am 22.1 22.6 16.6 71 3.4 NE 9 13 5 7 1016.9 1015.8 0.0
03/12:30am 22.3 23.1 16.3 69 3.7 NE 7 13 4 7 1017.2 1016.1 0.0
03/12:00am 22.7 23.2 16.5 68 3.8 NE 9 15 5 8 1017.2 1016.1 0.0
 
Date/Time
EST
Temp
°C
App
Temp
°C
Dew
Point
Rel
Hum
%
Delta-T
°C
Wind Press
QNH
hPa
Press
MSL
hPa
Rain
since 9 am
mm
Dir
 
Spd
km/h
Gust
km/h
Spd
kts
Gust
kts
02/11:30pm 23.1 23.1 16.2 65 4.2 NNE 11 15 6 8 1017.2 1016.1 0.0
02/11:00pm 23.7 23.3 16.2 63 4.6 NNE 13 19 7 10 1017.1 1016.0 0.0
02/10:30pm 24.1 23.5 15.6 59 5.2 NNE 13 20 7 11 1016.9 1015.8 0.0
02/10:00pm 24.8 24.1 15.4 56 5.7 NNE 13 19 7 10 1016.8 1015.7 0.0
02/09:30pm 25.5 23.9 14.9 52 6.4 NNE 17 30 9 16 1016.4 1015.3 0.0
02/09:00pm 26.3 25.1 15.0 49 6.9 NNE 15 22 8 12 1016.1 1015.0 0.0
02/08:30pm 27.1 25.8 14.8 47 7.5 NNE 15 22 8 12 1015.6 1014.5 0.0

Other Formats:

Comma delimited format used in spreadsheet applications
http://www.bom.gov.au/fwo/IDQ60801/IDQ60801.94276.axf

JavaScript Object Notation format (JSON) in row-major order
http://www.bom.gov.au/fwo/IDQ60801/IDQ60801.94276.json